createdAt,value
2019-02-25T00:02:36.863Z,55.18
2019-02-25T00:07:42.445Z,55.30
2019-02-25T00:12:48.615Z,55.41
2019-02-25T00:17:54.547Z,54.69
2019-02-25T00:23:00.196Z,55.32
2019-02-25T00:28:08.296Z,55.27
2019-02-25T00:33:16.031Z,55.20
2019-02-25T00:38:21.332Z,54.94
2019-02-25T00:43:30.318Z,55.12
2019-02-25T00:48:38.931Z,55.59
2019-02-25T00:53:44.603Z,55.59
2019-02-25T00:58:52.037Z,55.40
2019-02-25T01:04:00.750Z,55.33
2019-02-25T01:09:28.673Z,55.53
2019-02-25T01:14:35.925Z,55.40
2019-02-25T01:19:43.421Z,54.58
2019-02-25T01:24:48.977Z,55.14
2019-02-25T01:29:54.450Z,54.81
2019-02-25T01:34:59.976Z,55.50
2019-02-25T01:40:18.381Z,55.75
2019-02-25T01:45:22.500Z,55.30
2019-02-25T01:50:27.913Z,55.35
2019-02-25T01:55:33.517Z,55.44
2019-02-25T02:00:51.641Z,55.78
2019-02-25T02:05:57.539Z,55.58
2019-02-25T02:11:03.524Z,54.54
2019-02-25T02:16:09.507Z,54.34
2019-02-25T02:21:15.108Z,55.19
2019-02-25T02:26:30.849Z,54.86
2019-02-25T02:31:39.899Z,54.45
2019-02-25T02:36:45.874Z,55.90
2019-02-25T02:42:14.485Z,54.43
2019-02-25T02:47:44.419Z,54.75
2019-02-25T02:52:50.009Z,54.47
2019-02-25T02:57:55.917Z,54.96
2019-02-25T03:03:01.558Z,54.06
2019-02-25T03:08:07.542Z,54.96
2019-02-25T03:13:13.652Z,54.95
2019-02-25T03:18:27.569Z,53.91
2019-02-25T03:23:33.135Z,54.27
2019-02-25T03:28:38.640Z,53.77
2019-02-25T03:33:45.127Z,54.00
2019-02-25T03:38:51.095Z,53.06
2019-02-25T03:43:56.893Z,53.37
2019-02-25T03:49:04.056Z,53.52
2019-02-25T03:54:14.723Z,53.57
2019-02-25T03:59:21.400Z,54.13
2019-02-25T04:04:27.595Z,54.28
2019-02-25T04:09:33.086Z,53.96
2019-02-25T04:14:38.743Z,53.75
2019-02-25T04:19:44.262Z,53.81
2019-02-25T04:24:49.843Z,52.92
2019-02-25T04:29:56.974Z,52.73
2019-02-25T04:35:12.633Z,52.99
2019-02-25T04:40:16.009Z,53.52
2019-02-25T04:45:37.727Z,52.65
2019-02-25T04:50:44.279Z,53.94
2019-02-25T04:56:02.201Z,54.21
2019-02-25T05:01:09.520Z,54.35
2019-02-25T05:06:19.594Z,54.91
2019-02-25T05:11:32.193Z,54.61
2019-02-25T05:16:39.909Z,55.07
2019-02-25T05:21:44.938Z,55.23
2019-02-25T05:26:52.629Z,54.13
2019-02-25T05:32:00.734Z,53.61
2019-02-25T05:37:06.426Z,53.45
2019-02-25T05:42:15.179Z,53.45
2019-02-25T05:47:22.558Z,53.04
2019-02-25T05:52:30.445Z,53.80
2019-02-25T05:57:40.713Z,54.90
2019-02-25T06:02:46.300Z,56.30
2019-02-25T06:07:51.864Z,56.44
2019-02-25T06:12:59.121Z,53.90
2019-02-25T06:18:05.584Z,52.38
2019-02-25T06:23:11.696Z,52.38
2019-02-25T06:28:17.296Z,51.99
2019-02-25T06:33:23.009Z,52.15
2019-02-25T06:38:29.479Z,50.65
2019-02-25T06:43:37.415Z,50.46
2019-02-25T06:48:45.767Z,49.72
2019-02-25T06:54:05.781Z,49.43
2019-02-25T06:59:11.683Z,49.04
2019-02-25T07:04:26.668Z,48.51
2019-02-25T07:09:54.287Z,48.77
2019-02-25T07:15:26.507Z,48.54
2019-02-25T07:20:58.444Z,48.49
2019-02-25T07:26:21.300Z,46.08
2019-02-25T07:32:01.539Z,46.38
2019-02-25T07:37:25.872Z,46.17
2019-02-25T07:42:56.473Z,45.69
2019-02-25T07:48:13.679Z,45.61
2019-02-25T07:53:41.776Z,45.71
2019-02-25T07:59:04.887Z,44.26
2019-02-25T08:04:36.725Z,42.41
2019-02-25T08:09:52.631Z,40.81
2019-02-25T08:15:25.469Z,36.64
2019-02-25T08:21:03.859Z,35.78
2019-02-25T08:26:32.170Z,35.95
2019-02-25T08:31:54.408Z,34.91
2019-02-25T08:38:08.174Z,35.33
2019-02-25T08:43:40.891Z,33.13
2019-02-25T08:48:59.184Z,33.95
2019-02-25T08:54:06.343Z,32.50
2019-02-25T08:59:11.864Z,33.75
2019-02-25T09:04:17.486Z,32.54
2019-02-25T09:09:22.919Z,30.68
2019-02-25T09:14:28.884Z,29.23
2019-02-25T09:19:34.317Z,26.97
2019-02-25T09:24:40.885Z,27.17
2019-02-25T09:29:48.434Z,25.11
2019-02-25T09:34:53.986Z,27.33
2019-02-25T09:39:59.736Z,26.49
2019-02-25T09:45:29.809Z,25.26
2019-02-25T09:50:35.375Z,24.90
2019-02-25T09:55:41.444Z,26.17
2019-02-25T10:00:47.123Z,25.46
2019-02-25T10:05:54.825Z,27.08
2019-02-25T10:11:01.886Z,27.58
2019-02-25T10:16:07.645Z,27.84
2019-02-25T10:21:13.217Z,28.18
2019-02-25T10:26:22.285Z,27.94
2019-02-25T10:31:42.193Z,27.42
2019-02-25T10:36:52.375Z,27.54
2019-02-25T10:42:08.534Z,26.68
2019-02-25T10:47:15.651Z,27.36
2019-02-25T10:52:21.899Z,25.36
2019-02-25T10:57:29.169Z,25.50
2019-02-25T11:02:43.874Z,25.15
2019-02-25T11:07:42.212Z,25.82
2019-02-25T11:12:55.506Z,25.46
2019-02-25T11:18:00.809Z,26.03
2019-02-25T11:23:11.818Z,26.13
2019-02-25T11:28:25.555Z,25.25
2019-02-25T11:33:27.422Z,25.04
2019-02-25T11:38:38.927Z,24.43
2019-02-25T11:43:52.844Z,25.35
2019-02-25T11:48:59.769Z,25.64
2019-02-25T11:54:05.781Z,25.59
2019-02-25T11:59:11.377Z,24.90
2019-02-25T12:04:19.175Z,24.64
2019-02-25T12:09:24.691Z,22.47
2019-02-25T12:14:30.544Z,23.21
2019-02-25T12:19:36.023Z,22.57
2019-02-25T12:24:41.564Z,21.91
2019-02-25T12:29:47.075Z,22.29
2019-02-25T12:34:52.737Z,23.19
2019-02-25T12:39:58.238Z,22.42
2019-02-25T12:45:03.973Z,22.68
2019-02-25T12:50:21.946Z,21.97
2019-02-25T12:55:29.389Z,22.28
2019-02-25T13:00:35.046Z,22.59
2019-02-25T13:05:40.980Z,23.26
2019-02-25T13:10:46.494Z,23.67
2019-02-25T13:15:52.674Z,23.66
2019-02-25T13:20:58.141Z,22.38
2019-02-25T13:26:07.663Z,22.77
2019-02-25T13:31:13.443Z,21.50
2019-02-25T13:36:19.441Z,21.25
2019-02-25T13:41:24.998Z,22.76
2019-02-25T13:46:31.052Z,22.20
2019-02-25T13:51:36.580Z,22.38
2019-02-25T13:56:42.386Z,21.46
2019-02-25T14:01:48.246Z,22.73
2019-02-25T14:06:54.719Z,23.25
2019-02-25T14:12:01.139Z,21.89
2019-02-25T14:17:14.976Z,22.89
2019-02-25T14:22:20.693Z,21.97
2019-02-25T14:27:29.407Z,22.04
2019-02-25T14:32:42.133Z,22.20
2019-02-25T14:37:47.814Z,22.40
2019-02-25T14:42:56.921Z,22.79
2019-02-25T14:48:05.400Z,22.11
2019-02-25T14:53:11.551Z,22.13
2019-02-25T14:58:17.919Z,22.63
2019-02-25T15:03:26.951Z,23.49
2019-02-25T15:08:32.415Z,24.45
2019-02-25T15:13:39.096Z,24.52
2019-02-25T15:18:44.845Z,25.26
2019-02-25T15:23:50.412Z,25.13
2019-02-25T15:28:58.239Z,25.01
2019-02-25T15:34:04.639Z,25.93
2019-02-25T15:39:11.917Z,26.27
2019-02-25T15:44:17.645Z,26.49
2019-02-25T15:49:26.142Z,27.30
2019-02-25T15:54:33.321Z,27.09
2019-02-25T15:59:39.825Z,26.71
2019-02-25T16:04:45.478Z,27.58
2019-02-25T16:09:51.693Z,27.97
2019-02-25T16:14:57.280Z,27.31
2019-02-25T16:20:04.356Z,27.82
2019-02-25T16:25:27.606Z,28.32
2019-02-25T16:30:36.038Z,27.94
2019-02-25T16:35:43.038Z,29.14
2019-02-25T16:40:54.621Z,29.08
2019-02-25T16:45:59.479Z,30.08
2019-02-25T16:51:07.895Z,30.13
2019-02-25T16:56:17.702Z,31.08
2019-02-25T17:01:30.401Z,31.98
2019-02-25T17:06:37.406Z,32.60
2019-02-25T17:11:45.610Z,32.02
2019-02-25T17:16:51.950Z,32.88
2019-02-25T17:21:58.872Z,33.75
2019-02-25T17:27:06.989Z,33.52
2019-02-25T17:32:16.765Z,33.39
2019-02-25T17:37:23.097Z,34.03
2019-02-25T17:42:33.097Z,34.17
2019-02-25T17:47:39.608Z,33.67
2019-02-25T17:52:55.410Z,34.61
2019-02-25T17:58:01.382Z,35.14
2019-02-25T18:03:11.934Z,35.04
2019-02-25T18:08:19.676Z,35.96
2019-02-25T18:13:26.368Z,35.48
2019-02-25T18:18:33.157Z,34.58
2019-02-25T18:23:38.813Z,34.47
2019-02-25T18:28:45.876Z,33.55
2019-02-25T18:33:52.877Z,34.90
2019-02-25T18:39:01.089Z,34.87
2019-02-25T18:44:09.258Z,36.76
2019-02-25T18:49:15.846Z,34.29
2019-02-25T18:54:25.546Z,32.09
2019-02-25T18:59:35.060Z,32.62
2019-02-25T19:04:41.376Z,32.68
2019-02-25T19:09:49.316Z,33.54
2019-02-25T19:15:03.131Z,33.22
2019-02-25T19:20:22.396Z,34.15
2019-02-25T19:25:30.123Z,34.62
2019-02-25T19:30:36.597Z,35.31
2019-02-25T19:35:45.688Z,35.01
2019-02-25T19:40:55.154Z,35.30
2019-02-25T19:46:01.854Z,35.11
2019-02-25T19:51:14.904Z,34.96
2019-02-25T19:56:32.274Z,35.53
2019-02-25T20:01:40.325Z,36.10
2019-02-25T20:06:56.115Z,37.15
2019-02-25T20:12:05.556Z,37.24
2019-02-25T20:17:12.753Z,37.00
2019-02-25T20:22:19.623Z,37.10
2019-02-25T20:27:29.431Z,36.84
2019-02-25T20:32:38.564Z,37.88
2019-02-25T20:37:46.402Z,38.23
2019-02-25T20:42:56.094Z,39.23
2019-02-25T20:48:06.973Z,39.25
2019-02-25T20:53:14.860Z,39.29
2019-02-25T20:58:23.393Z,39.71
2019-02-25T21:03:29.458Z,43.60
2019-02-25T21:08:37.467Z,40.09
2019-02-25T21:13:43.279Z,40.21
2019-02-25T21:18:59.537Z,40.49
2019-02-25T21:24:31.037Z,41.44
2019-02-25T21:29:38.827Z,42.27
2019-02-25T21:34:50.113Z,42.23
2019-02-25T21:39:53.538Z,42.93
2019-02-25T21:45:00.311Z,42.78
2019-02-25T21:50:09.499Z,43.21
2019-02-25T21:55:23.827Z,43.65
2019-02-25T22:00:32.892Z,42.80
2019-02-25T22:05:40.267Z,43.72
2019-02-25T22:10:46.310Z,42.81
2019-02-25T22:15:52.019Z,43.12
2019-02-25T22:20:57.749Z,44.18
2019-02-25T22:26:03.523Z,47.61
2019-02-25T22:31:11.020Z,46.96
2019-02-25T22:36:16.490Z,46.28
2019-02-25T22:41:22.930Z,45.50
2019-02-25T22:46:32.549Z,47.29
2019-02-25T22:51:37.591Z,46.02
2019-02-25T22:56:43.306Z,45.50
2019-02-25T23:01:52.064Z,45.34
2019-02-25T23:06:59.047Z,45.48
2019-02-25T23:12:06.112Z,46.21
2019-02-25T23:17:20.402Z,46.50
2019-02-25T23:22:28.223Z,46.21
2019-02-25T23:27:38.796Z,47.31
2019-02-25T23:32:45.376Z,46.64
2019-02-25T23:37:51.935Z,46.19
2019-02-25T23:42:58.972Z,45.68
2019-02-25T23:55:01.946Z,44.99
